createdAt,value
2023-02-11T00:01:51.241Z,80.81
2023-02-11T00:04:54.046Z,80.94
2023-02-11T00:07:57.314Z,81.36
2023-02-11T00:11:00.180Z,81.75
2023-02-11T00:14:06.072Z,82.01
2023-02-11T00:17:08.878Z,82.24
2023-02-11T00:20:11.879Z,82.29
2023-02-11T00:23:15.318Z,81.84
2023-02-11T00:26:24.096Z,82.49
2023-02-11T00:29:27.081Z,82.72
2023-02-11T00:32:30.122Z,83.36
2023-02-11T00:35:32.872Z,83.64
2023-02-11T00:38:36.601Z,83.66
2023-02-11T00:41:39.856Z,84.16
2023-02-11T00:44:43.544Z,84.65
2023-02-11T00:47:46.268Z,85.06
2023-02-11T00:50:49.092Z,84.81
2023-02-11T00:53:52.013Z,84.29
2023-02-11T00:56:54.715Z,84.63
2023-02-11T00:59:57.785Z,84.85
2023-02-11T01:03:00.913Z,84.83
2023-02-11T01:06:04.225Z,84.84
2023-02-11T01:09:07.251Z,84.48
2023-02-11T01:12:11.304Z,84.88
2023-02-11T01:15:19.942Z,85.22
2023-02-11T01:18:22.833Z,85.08
2023-02-11T01:21:26.064Z,84.43
2023-02-11T01:24:29.093Z,84.27
2023-02-11T01:27:31.940Z,85.23
2023-02-11T01:30:34.657Z,85.09
2023-02-11T01:33:39.801Z,85.12
2023-02-11T01:36:42.681Z,84.97
2023-02-11T01:39:45.484Z,84.78
2023-02-11T01:42:50.949Z,85.49
2023-02-11T01:46:00.938Z,86.01
2023-02-11T01:49:06.773Z,86.05
2023-02-11T01:52:35.477Z,86.08
2023-02-11T01:55:56.749Z,84.88
2023-02-11T01:59:06.203Z,85.26
2023-02-11T02:02:13.087Z,85.40
2023-02-11T02:05:15.782Z,84.58
2023-02-11T02:08:47.256Z,84.83
2023-02-11T02:11:51.339Z,86.14
2023-02-11T02:15:17.820Z,85.46
2023-02-11T02:18:53.659Z,85.60
2023-02-11T02:22:33.945Z,85.44
2023-02-11T02:25:50.321Z,86.66
2023-02-11T02:29:17.800Z,86.40
2023-02-11T02:32:39.696Z,87.01
2023-02-11T02:36:01.334Z,87.12
2023-02-11T02:39:12.374Z,87.03
2023-02-11T02:42:17.020Z,87.15
2023-02-11T02:45:20.624Z,87.57
2023-02-11T02:48:35.890Z,87.44
2023-02-11T02:51:48.672Z,87.33
2023-02-11T02:55:25.465Z,86.88
2023-02-11T02:58:30.963Z,87.22
2023-02-11T03:01:50.819Z,86.80
2023-02-11T03:05:29.580Z,87.25
2023-02-11T03:08:42.466Z,87.95
2023-02-11T03:11:45.786Z,87.36
2023-02-11T03:14:51.689Z,87.32
2023-02-11T03:17:58.918Z,86.82
2023-02-11T03:21:03.990Z,86.92
2023-02-11T03:24:13.125Z,86.84
2023-02-11T03:27:20.432Z,87.35
2023-02-11T03:30:36.045Z,87.17
2023-02-11T03:34:02.776Z,87.23
2023-02-11T03:37:22.264Z,87.52
2023-02-11T03:40:40.028Z,88.32
2023-02-11T03:43:51.309Z,88.93
2023-02-11T03:46:55.091Z,88.82
2023-02-11T03:49:58.857Z,88.68
2023-02-11T03:53:03.013Z,88.34
2023-02-11T03:56:10.165Z,88.03
2023-02-11T03:59:13.100Z,88.16
2023-02-11T04:02:16.283Z,87.90
2023-02-11T04:05:19.194Z,88.24
2023-02-11T04:08:21.944Z,88.54
2023-02-11T04:11:24.760Z,88.78
2023-02-11T04:14:27.565Z,88.44
2023-02-11T04:17:30.353Z,88.15
2023-02-11T04:20:33.144Z,87.48
2023-02-11T04:23:36.192Z,88.27
2023-02-11T04:26:39.020Z,87.75
2023-02-11T04:29:42.551Z,88.36
2023-02-11T04:32:45.408Z,88.46
2023-02-11T04:35:48.730Z,88.52
2023-02-11T04:38:52.113Z,88.21
2023-02-11T04:41:54.942Z,88.41
2023-02-11T04:44:57.812Z,87.62
2023-02-11T04:48:03.181Z,87.74
2023-02-11T04:51:06.355Z,87.70
2023-02-11T04:54:09.071Z,88.07
2023-02-11T04:57:11.894Z,87.97
2023-02-11T05:00:15.510Z,88.36
2023-02-11T05:03:18.451Z,88.53
2023-02-11T05:06:21.905Z,89.06
2023-02-11T05:09:24.655Z,88.28
2023-02-11T05:12:27.574Z,88.08
2023-02-11T05:15:30.656Z,88.12
2023-02-11T05:18:33.425Z,88.71
2023-02-11T05:21:36.307Z,89.14
2023-02-11T05:24:39.459Z,88.77
2023-02-11T05:27:42.265Z,88.68
2023-02-11T05:30:45.312Z,88.60
2023-02-11T05:33:48.154Z,88.79
2023-02-11T05:36:50.888Z,88.51
2023-02-11T05:39:53.652Z,88.33
2023-02-11T05:42:56.421Z,89.05
2023-02-11T05:45:59.396Z,88.90
2023-02-11T05:49:02.809Z,89.28
2023-02-11T05:52:05.604Z,89.45
2023-02-11T05:55:08.476Z,89.27
2023-02-11T05:58:11.294Z,88.42
2023-02-11T06:01:14.222Z,89.21
2023-02-11T06:04:17.014Z,88.87
2023-02-11T06:07:20.019Z,88.76
2023-02-11T06:10:23.025Z,88.70
2023-02-11T06:13:25.824Z,88.95
2023-02-11T06:16:28.967Z,88.77
2023-02-11T06:19:31.820Z,87.46
2023-02-11T06:22:35.200Z,86.78
2023-02-11T06:25:38.299Z,87.00
2023-02-11T06:28:42.106Z,86.95
2023-02-11T06:31:45.054Z,87.18
2023-02-11T06:34:47.948Z,87.17
2023-02-11T06:37:50.736Z,87.02
2023-02-11T06:40:53.558Z,86.52
2023-02-11T06:43:56.255Z,85.85
2023-02-11T06:46:59.079Z,84.94
2023-02-11T06:50:02.048Z,84.37
2023-02-11T06:53:04.997Z,84.61
2023-02-11T06:56:10.612Z,84.09
2023-02-11T06:59:17.270Z,83.49
2023-02-11T07:02:21.124Z,82.56
2023-02-11T07:05:24.260Z,82.31
2023-02-11T07:08:27.600Z,82.45
2023-02-11T07:11:31.403Z,81.21
2023-02-11T07:14:34.184Z,77.73
2023-02-11T07:17:39.880Z,69.71
2023-02-11T07:20:43.075Z,62.07
2023-02-11T07:23:46.259Z,56.34
2023-02-11T07:26:49.126Z,53.43
2023-02-11T07:29:52.118Z,52.64
2023-02-11T07:32:56.343Z,51.45
2023-02-11T07:36:01.257Z,47.70
2023-02-11T07:39:04.500Z,44.38
2023-02-11T07:42:07.404Z,43.82
2023-02-11T07:45:11.115Z,41.10
2023-02-11T07:48:13.869Z,39.98
2023-02-11T07:51:19.743Z,41.74
2023-02-11T07:54:22.954Z,40.35
2023-02-11T07:57:25.741Z,40.33
2023-02-11T08:00:28.587Z,39.01
2023-02-11T08:03:32.188Z,37.35
2023-02-11T08:06:40.166Z,34.82
2023-02-11T08:09:43.369Z,33.36
2023-02-11T08:12:46.102Z,33.46
2023-02-11T08:15:49.166Z,33.08
2023-02-11T08:18:53.474Z,31.73
2023-02-11T08:21:57.493Z,31.30
2023-02-11T08:25:00.497Z,31.38
2023-02-11T08:28:03.345Z,30.81
2023-02-11T08:31:08.327Z,29.24
2023-02-11T08:34:14.354Z,28.14
2023-02-11T08:37:17.878Z,29.51
2023-02-11T08:40:20.821Z,27.67
2023-02-11T08:43:23.761Z,27.62
2023-02-11T08:46:27.455Z,29.02
2023-02-11T08:49:31.665Z,27.76
2023-02-11T08:52:36.038Z,27.92
2023-02-11T08:55:38.933Z,27.11
2023-02-11T08:58:42.425Z,25.94
2023-02-11T09:01:47.413Z,26.92
2023-02-11T09:04:50.291Z,27.63
2023-02-11T09:07:53.087Z,26.55
2023-02-11T09:10:57.524Z,25.41
2023-02-11T09:14:01.884Z,26.15
2023-02-11T09:17:05.378Z,25.67
2023-02-11T09:20:10.762Z,25.91
2023-02-11T09:23:13.986Z,26.30
2023-02-11T09:26:20.693Z,25.28
2023-02-11T09:29:24.074Z,25.29
2023-02-11T09:32:27.152Z,25.04
2023-02-11T09:35:29.932Z,24.89
2023-02-11T09:38:33.607Z,24.08
2023-02-11T09:41:53.633Z,23.37
2023-02-11T09:45:00.729Z,21.67
2023-02-11T09:48:16.172Z,21.63
2023-02-11T09:51:26.693Z,25.06
2023-02-11T09:54:37.314Z,27.10
2023-02-11T09:57:40.081Z,29.19
2023-02-11T10:01:11.592Z,31.62
2023-02-11T10:04:29.535Z,32.48
2023-02-11T10:07:51.720Z,32.73
2023-02-11T10:11:08.706Z,32.55
2023-02-11T10:14:26.888Z,32.40
2023-02-11T10:17:35.257Z,32.35
2023-02-11T10:21:04.329Z,31.62
2023-02-11T10:24:14.191Z,32.95
2023-02-11T10:27:21.388Z,27.35
2023-02-11T10:30:24.321Z,25.45
2023-02-11T10:34:00.682Z,24.19
2023-02-11T10:37:04.260Z,25.71
2023-02-11T10:40:13.997Z,25.96
2023-02-11T10:43:19.540Z,26.41
2023-02-11T10:46:31.401Z,24.88
2023-02-11T10:49:42.981Z,25.59
2023-02-11T10:52:45.908Z,27.06
2023-02-11T10:55:55.023Z,26.93
2023-02-11T10:59:05.064Z,24.31
2023-02-11T11:02:32.192Z,23.75
2023-02-11T11:05:48.485Z,20.37
2023-02-11T11:08:52.272Z,20.50
2023-02-11T11:11:55.612Z,23.13
2023-02-11T11:15:16.585Z,25.51
2023-02-11T11:18:23.228Z,23.63
2023-02-11T11:21:36.477Z,22.23
2023-02-11T11:24:46.864Z,22.91
2023-02-11T11:27:51.581Z,22.03
2023-02-11T11:30:57.154Z,19.85
2023-02-11T11:34:03.475Z,19.58
2023-02-11T11:37:20.234Z,20.16
2023-02-11T11:40:27.103Z,20.88
2023-02-11T11:43:30.207Z,23.26
2023-02-11T11:46:41.332Z,24.13
2023-02-11T11:50:06.911Z,25.81
2023-02-11T11:53:21.005Z,28.15
2023-02-11T11:56:27.634Z,29.53
2023-02-11T11:59:30.717Z,30.16
2023-02-11T12:03:04.579Z,30.42
2023-02-11T12:06:35.794Z,30.51
2023-02-11T12:09:41.439Z,30.38
2023-02-11T12:13:10.287Z,31.42
2023-02-11T12:16:41.090Z,32.05
2023-02-11T12:20:18.246Z,31.10
2023-02-11T12:23:30.900Z,31.02
2023-02-11T12:26:43.503Z,31.68
2023-02-11T12:30:03.738Z,31.78
2023-02-11T12:33:34.665Z,31.63
2023-02-11T12:36:54.483Z,31.73
2023-02-11T12:40:28.753Z,30.91
2023-02-11T12:43:44.118Z,30.10
2023-02-11T12:47:16.303Z,30.00
2023-02-11T12:50:49.500Z,29.63
2023-02-11T12:54:11.100Z,28.50
2023-02-11T12:57:23.517Z,29.07
2023-02-11T13:00:40.754Z,28.76
2023-02-11T13:03:48.485Z,31.12
2023-02-11T13:07:00.070Z,33.69
2023-02-11T13:10:26.300Z,33.87
2023-02-11T13:13:34.632Z,33.76
2023-02-11T13:16:46.147Z,31.74
2023-02-11T13:19:55.682Z,29.06
2023-02-11T13:23:23.942Z,26.73
2023-02-11T13:26:38.254Z,25.74
2023-02-11T13:30:12.090Z,27.14
2023-02-11T13:33:45.925Z,26.69
2023-02-11T13:36:55.624Z,29.28
2023-02-11T13:40:22.204Z,31.36
2023-02-11T13:43:29.088Z,29.02
2023-02-11T13:46:53.937Z,27.60
2023-02-11T13:49:58.389Z,27.30
2023-02-11T13:53:04.020Z,26.73
2023-02-11T13:56:13.221Z,28.20
2023-02-11T13:59:25.532Z,27.34
2023-02-11T14:02:54.523Z,28.61
2023-02-11T14:06:46.720Z,30.27
2023-02-11T14:09:57.687Z,28.41
2023-02-11T14:13:23.409Z,29.11
2023-02-11T14:16:37.348Z,29.05
2023-02-11T14:19:46.695Z,30.13
2023-02-11T14:22:52.968Z,32.88
2023-02-11T14:26:21.340Z,32.49
2023-02-11T14:29:42.622Z,35.24
2023-02-11T14:33:05.728Z,37.71
2023-02-11T14:36:44.842Z,39.00
2023-02-11T14:40:08.915Z,41.31
2023-02-11T14:43:29.566Z,41.03
2023-02-11T14:46:33.314Z,42.40
2023-02-11T14:49:40.334Z,42.55
2023-02-11T14:52:44.577Z,42.56
2023-02-11T14:55:52.980Z,43.14
2023-02-11T14:58:56.081Z,43.65
2023-02-11T15:01:59.538Z,44.10
2023-02-11T15:05:19.777Z,44.18
2023-02-11T15:08:23.213Z,44.62
2023-02-11T15:11:28.868Z,44.73
2023-02-11T15:14:36.615Z,45.21
2023-02-11T15:17:39.653Z,45.09
2023-02-11T15:20:42.553Z,45.71
2023-02-11T15:23:56.364Z,45.98
2023-02-11T15:27:18.613Z,45.94
2023-02-11T15:30:21.724Z,46.54
2023-02-11T15:33:30.155Z,46.45
2023-02-11T15:36:36.411Z,47.49
2023-02-11T15:39:42.401Z,47.43
2023-02-11T15:43:08.363Z,47.71
2023-02-11T15:46:17.138Z,47.69
2023-02-11T15:49:21.547Z,47.90
2023-02-11T15:52:27.592Z,47.94
2023-02-11T15:55:31.166Z,48.12
2023-02-11T15:58:43.576Z,48.07
2023-02-11T16:01:48.339Z,48.07
2023-02-11T16:04:57.626Z,48.15
2023-02-11T16:08:01.762Z,48.10
2023-02-11T16:11:09.227Z,48.66
2023-02-11T16:14:37.227Z,48.59
2023-02-11T16:17:40.297Z,49.36
2023-02-11T16:20:48.100Z,49.86
2023-02-11T16:23:56.793Z,49.86
2023-02-11T16:27:06.870Z,50.40
2023-02-11T16:30:32.556Z,50.71
2023-02-11T16:33:35.803Z,50.77
2023-02-11T16:36:38.887Z,51.07
2023-02-11T16:39:42.314Z,51.13
2023-02-11T16:42:45.417Z,51.37
2023-02-11T16:45:49.521Z,51.87
2023-02-11T16:48:53.161Z,52.33
2023-02-11T16:52:01.358Z,52.13
2023-02-11T16:55:05.563Z,52.26
2023-02-11T16:58:08.775Z,51.81
2023-02-11T17:01:14.134Z,52.71
2023-02-11T17:04:21.179Z,53.10
2023-02-11T17:07:24.110Z,53.23
2023-02-11T17:10:27.113Z,53.64
2023-02-11T17:13:30.357Z,53.67
2023-02-11T17:16:34.411Z,53.94
2023-02-11T17:19:38.221Z,54.97
2023-02-11T17:22:42.145Z,57.29
2023-02-11T17:25:45.177Z,57.02
2023-02-11T17:28:48.625Z,58.07
2023-02-11T17:31:52.783Z,58.50
2023-02-11T17:34:55.904Z,58.20
2023-02-11T17:37:59.467Z,59.24
2023-02-11T17:41:03.549Z,58.80
2023-02-11T17:44:07.980Z,58.56
2023-02-11T17:47:12.342Z,57.82
2023-02-11T17:50:15.919Z,56.96
2023-02-11T17:53:18.646Z,57.49
2023-02-11T17:56:21.705Z,57.10
2023-02-11T17:59:26.167Z,57.01
2023-02-11T18:02:29.761Z,57.19
2023-02-11T18:05:37.216Z,56.84
2023-02-11T18:08:41.894Z,56.29
2023-02-11T18:11:45.460Z,56.55
2023-02-11T18:14:48.648Z,56.14
2023-02-11T18:17:51.696Z,56.18
2023-02-11T18:20:59.948Z,56.47
2023-02-11T18:24:06.777Z,57.06
2023-02-11T18:27:10.102Z,57.14
2023-02-11T18:30:18.020Z,56.72
2023-02-11T18:33:21.439Z,57.35
2023-02-11T18:36:24.561Z,57.91
2023-02-11T18:39:28.015Z,58.19
2023-02-11T18:42:33.277Z,58.42
2023-02-11T18:45:36.409Z,58.17
2023-02-11T18:48:40.408Z,57.90
2023-02-11T18:51:43.776Z,57.73
2023-02-11T18:54:46.856Z,58.33
2023-02-11T18:57:50.238Z,57.64
2023-02-11T19:00:53.167Z,57.42
2023-02-11T19:03:57.631Z,56.87
2023-02-11T19:07:04.146Z,56.94
2023-02-11T19:10:08.887Z,57.65
2023-02-11T19:13:13.094Z,57.27
2023-02-11T19:16:19.857Z,56.85
2023-02-11T19:19:25.804Z,56.55
2023-02-11T19:22:28.810Z,57.54
2023-02-11T19:25:31.677Z,57.29
2023-02-11T19:28:37.173Z,56.96
2023-02-11T19:31:41.027Z,56.74
2023-02-11T19:34:44.116Z,56.33
2023-02-11T19:37:47.179Z,56.18
2023-02-11T19:40:56.178Z,55.28
2023-02-11T19:44:00.878Z,54.68
2023-02-11T19:47:04.506Z,54.90
2023-02-11T19:50:08.899Z,54.67
2023-02-11T19:53:12.104Z,54.03
2023-02-11T19:56:16.085Z,54.28
2023-02-11T19:59:19.739Z,54.36
2023-02-11T20:02:23.625Z,55.27
2023-02-11T20:05:26.774Z,54.35
2023-02-11T20:08:29.749Z,54.68
2023-02-11T20:11:34.571Z,54.62
2023-02-11T20:14:39.017Z,55.03
2023-02-11T20:17:42.065Z,54.51
2023-02-11T20:20:45.092Z,54.86
2023-02-11T20:23:50.195Z,54.51
2023-02-11T20:26:56.128Z,53.14
2023-02-11T20:29:59.375Z,51.64
2023-02-11T20:33:02.664Z,50.44
2023-02-11T20:36:08.705Z,49.85
2023-02-11T20:39:17.310Z,49.63
2023-02-11T20:42:20.441Z,48.77
2023-02-11T20:45:23.575Z,48.06
2023-02-11T20:48:27.268Z,47.78
2023-02-11T20:51:32.989Z,48.03
2023-02-11T20:54:36.126Z,48.06
2023-02-11T20:57:39.270Z,48.17
2023-02-11T21:00:42.280Z,48.03
2023-02-11T21:03:50.352Z,48.44
2023-02-11T21:06:59.466Z,48.47
2023-02-11T21:10:02.697Z,48.36
2023-02-11T21:13:05.963Z,48.73
2023-02-11T21:16:13.668Z,49.59
2023-02-11T21:19:17.770Z,48.87
2023-02-11T21:22:20.952Z,49.61
2023-02-11T21:25:24.028Z,49.27
2023-02-11T21:28:27.790Z,49.08
2023-02-11T21:31:33.114Z,49.54
2023-02-11T21:34:36.621Z,49.17
2023-02-11T21:37:39.857Z,49.06
2023-02-11T21:40:42.808Z,49.91
2023-02-11T21:43:46.930Z,49.88
2023-02-11T21:46:49.859Z,49.82
2023-02-11T21:49:53.279Z,50.53
2023-02-11T21:52:56.365Z,50.71
2023-02-11T21:56:07.579Z,50.94
2023-02-11T21:59:13.015Z,50.55
2023-02-11T22:02:16.399Z,51.20
2023-02-11T22:05:19.400Z,51.56
2023-02-11T22:08:22.488Z,51.26
2023-02-11T22:11:26.709Z,51.21
2023-02-11T22:14:32.189Z,51.28
2023-02-11T22:17:35.398Z,51.52
2023-02-11T22:20:38.518Z,51.02
2023-02-11T22:23:41.417Z,51.00
2023-02-11T22:26:44.520Z,51.27
2023-02-11T22:29:47.990Z,50.97
2023-02-11T22:32:50.926Z,51.72
2023-02-11T22:36:06.515Z,51.45
2023-02-11T22:39:13.603Z,51.51
2023-02-11T22:42:16.403Z,51.71
2023-02-11T22:45:19.249Z,51.88
2023-02-11T22:48:23.271Z,52.38
2023-02-11T22:51:29.393Z,52.01
2023-02-11T22:54:32.315Z,52.26
2023-02-11T22:57:35.321Z,51.73
2023-02-11T23:00:42.266Z,52.38
2023-02-11T23:03:45.491Z,53.09
2023-02-11T23:06:48.652Z,53.05
2023-02-11T23:09:51.638Z,53.46
2023-02-11T23:12:54.543Z,53.28
2023-02-11T23:15:57.506Z,53.41
2023-02-11T23:19:04.458Z,53.51
2023-02-11T23:22:08.861Z,54.07
2023-02-11T23:25:11.666Z,54.53
2023-02-11T23:28:14.503Z,54.13
2023-02-11T23:31:23.697Z,54.06
2023-02-11T23:34:26.893Z,54.37
2023-02-11T23:37:29.644Z,54.44
2023-02-11T23:40:32.418Z,54.19
2023-02-11T23:43:35.240Z,54.65
2023-02-11T23:46:38.237Z,54.44
2023-02-11T23:49:41.064Z,54.15
2023-02-11T23:52:44.268Z,54.04
2023-02-11T23:55:47.157Z,54.33
2023-02-11T23:58:52.181Z,54.38
